Time;durP1;ratioP1;P1;durP2;ratioP2;P2;SDS_P1;SDS_P2;PMS_P1;PMS_P2;Temp;Humidity;BMP_temperature;BMP_pressure;BME280_temperature;BME280_humidity;BME280_pressure;Samples;Min_cycle;Max_cycle;Signal;HPM_P1;HPM_P2
2022/05/15 00:01:32;;;;;;;;;5.00;3.00;;;;;22.12;47.29;102161.78;5052229;28;8790;-70
2022/05/15 00:03:57;;;;;;;;;2.25;2.25;;;;;22.11;47.42;102166.25;5051083;28;9498;-71
2022/05/15 00:06:23;;;;;;;;;4.00;3.00;;;;;22.11;47.46;102160.06;5052902;28;11495;-70
2022/05/15 00:08:48;;;;;;;;;2.50;2.50;;;;;22.11;47.59;102162.72;5052603;28;8786;-71
2022/05/15 00:11:18;;;;;;;;;3.25;2.75;;;;;22.10;47.39;102158.28;5052933;28;8800;-72
2022/05/15 00:13:45;;;;;;;;;4.25;2.75;;;;;22.09;47.31;102156.50;5052366;28;8924;-70
2022/05/15 00:16:10;;;;;;;;;3.67;3.00;;;;;22.08;47.24;102155.63;5051637;28;9516;-71
2022/05/15 00:18:38;;;;;;;;;4.25;3.00;;;;;22.07;47.58;102152.97;5052705;28;9407;-71
2022/05/15 00:21:03;;;;;;;;;4.75;4.75;;;;;22.05;47.46;102147.66;5052559;28;8770;-71
2022/05/15 00:23:29;;;;;;;;;2.00;2.00;;;;;22.06;47.30;102143.22;5051849;28;9400;-71
2022/05/15 00:25:54;;;;;;;;;2.33;2.00;;;;;22.05;47.34;102144.09;5050204;28;8973;-70
2022/05/15 00:28:19;;;;;;;;;5.00;5.00;;;;;22.04;47.55;102129.06;5052621;28;8778;-70
2022/05/15 00:30:45;;;;;;;;;4.00;3.00;;;;;22.03;47.47;102130.84;5051389;28;8788;-71
2022/05/15 00:33:11;;;;;;;;;4.00;4.00;;;;;22.03;47.41;102135.25;5052356;28;8781;-70
2022/05/15 00:35:37;;;;;;;;;4.00;3.00;;;;;22.02;47.62;102131.72;5050461;28;8905;-71
2022/05/15 00:38:07;;;;;;;;;4.00;3.00;;;;;22.03;47.35;102135.25;5051303;28;8988;-71
2022/05/15 00:40:35;;;;;;;;;4.00;2.67;;;;;22.02;47.71;102133.50;5052610;28;9399;-71
2022/05/15 00:43:00;;;;;;;;;5.00;3.67;;;;;22.00;47.49;102130.84;5051932;28;9181;-70
2022/05/15 00:45:26;;;;;;;;;5.25;3.50;;;;;22.02;47.74;102136.16;5049635;28;9360;-70
2022/05/15 00:47:52;;;;;;;;;2.67;2.67;;;;;22.00;47.42;102132.63;5051820;28;8936;-72
2022/05/15 00:50:23;;;;;;;;;3.00;3.00;;;;;22.01;47.42;102135.25;5051772;28;8924;-71
2022/05/15 00:52:52;;;;;;;;;3.67;3.67;;;;;21.99;47.36;102133.50;5050679;28;8885;-71
2022/05/15 00:55:31;;;;;;;;;4.50;4.50;;;;;21.98;47.51;102135.28;5050166;28;9270;-70
2022/05/15 00:58:00;;;;;;;;;4.00;4.00;;;;;21.98;47.63;102137.94;5051001;28;9386;-71
2022/05/15 01:00:32;;;;;;;;;2.00;2.00;;;;;21.97;47.50;102133.50;5052041;28;9525;-70
2022/05/15 01:03:13;;;;;;;;;3.25;3.25;;;;;21.97;47.68;102138.81;5051532;28;9360;-69
2022/05/15 01:05:42;;;;;;;;;6.00;3.00;;;;;21.96;47.68;102137.06;5049705;28;9373;-71
2022/05/15 01:08:08;;;;;;;;;4.50;4.50;;;;;21.95;47.88;102127.31;5051768;28;9510;-70
2022/05/15 01:10:36;;;;;;;;;4.75;4.75;;;;;21.96;47.43;102128.22;5052228;28;9505;-70
2022/05/15 01:13:04;;;;;;;;;4.25;3.50;;;;;21.94;47.68;102133.53;5051306;28;8784;-71
2022/05/15 01:15:29;;;;;;;;;3.00;3.00;;;;;21.95;47.78;102134.41;5050069;28;9643;-71
2022/05/15 01:17:55;;;;;;;;;4.25;3.00;;;;;21.93;47.69;102125.56;5051955;28;9382;-71
2022/05/15 01:20:26;;;;;;;;;5.00;4.00;;;;;21.93;47.57;102130.88;5051366;28;8782;-71
2022/05/15 01:22:52;;;;;;;;;4.25;4.00;;;;;21.92;47.53;102127.34;5051765;28;8806;-71
2022/05/15 01:25:22;;;;;;;;;3.00;2.00;;;;;21.92;47.70;102131.78;5050026;28;9503;-71
2022/05/15 01:27:53;;;;;;;;;3.00;3.00;;;;;21.92;47.69;102126.47;5050616;28;9357;-70
2022/05/15 01:30:19;;;;;;;;;2.50;2.50;;;;;21.91;47.54;102124.69;5051528;28;10160;-70
2022/05/15 01:32:44;;;;;;;;;3.00;3.00;;;;;21.91;47.74;102130.00;5051267;28;9607;-70
2022/05/15 01:35:10;;;;;;;;;2.00;2.00;;;;;21.90;47.50;102130.84;5049081;28;8789;-70
2022/05/15 01:37:35;;;;;;;;;4.00;3.00;;;;;21.89;47.62;102124.66;5051318;28;8843;-71
2022/05/15 01:40:03;;;;;;;;;3.00;2.00;;;;;21.88;47.49;102128.22;5050169;28;8918;-71
2022/05/15 01:42:29;;;;;;;;;3.00;2.25;;;;;21.88;47.73;102125.56;5051181;28;8786;-70
2022/05/15 01:44:54;;;;;;;;;3.67;3.67;;;;;21.89;47.56;102122.00;5048433;28;9569;-70
2022/05/15 01:47:19;;;;;;;;;5.00;4.25;;;;;21.87;47.52;102125.53;5050311;28;8794;-70
2022/05/15 01:49:44;;;;;;;;;3.00;3.00;;;;;21.87;47.76;102126.44;5050442;28;8805;-72
2022/05/15 01:52:10;;;;;;;;;3.00;2.00;;;;;21.87;47.50;102118.47;5050562;28;8936;-73
2022/05/15 01:54:35;;;;;;;;;5.00;4.25;;;;;21.85;47.72;102117.59;5050191;28;8889;-70
2022/05/15 01:57:00;;;;;;;;;3.00;3.00;;;;;21.86;47.75;102118.47;5050351;28;8782;-70
2022/05/15 01:59:26;;;;;;;;;3.00;3.00;;;;;21.85;47.80;102116.72;5050783;28;8794;-70
2022/05/15 02:01:51;;;;;;;;;3.50;3.25;;;;;21.85;47.77;102120.25;5049540;28;8818;-70
2022/05/15 02:04:17;;;;;;;;;4.00;4.00;;;;;21.84;47.85;102117.59;5049974;28;8782;-70
2022/05/15 02:06:42;;;;;;;;;4.00;4.00;;;;;21.83;47.82;102108.72;5050589;28;8834;-70
2022/05/15 02:09:07;;;;;;;;;4.00;4.00;;;;;21.83;47.56;102113.16;5049922;28;9630;-71
2022/05/15 02:11:37;;;;;;;;;3.00;3.00;;;;;21.82;47.66;102114.91;5050207;28;8809;-70
2022/05/15 02:14:02;;;;;;;;;4.00;4.00;;;;;21.83;47.70;102119.34;5050146;28;9647;-70
2022/05/15 02:16:27;;;;;;;;;2.25;2.00;;;;;21.82;47.62;102117.59;5049760;28;9533;-70
2022/05/15 02:18:53;;;;;;;;;4.00;3.00;;;;;21.82;47.79;102117.59;5050244;28;8782;-70
2022/05/15 02:21:18;;;;;;;;;4.00;4.00;;;;;21.82;47.69;102120.25;5050386;28;8851;-71
2022/05/15 02:23:43;;;;;;;;;2.00;2.00;;;;;21.81;47.56;102117.59;5049185;28;8996;-71
2022/05/15 02:26:09;;;;;;;;;4.00;4.00;;;;;21.80;47.78;102114.06;5050020;28;8802;-71
2022/05/15 02:28:38;;;;;;;;;3.00;3.00;;;;;21.81;47.87;102113.19;5050085;28;8854;-71
2022/05/15 02:31:03;;;;;;;;;5.50;3.75;;;;;21.80;47.74;102111.41;5049134;28;8790;-70
2022/05/15 02:33:28;;;;;;;;;2.75;2.75;;;;;21.79;47.50;102106.97;5049944;28;10304;-70
2022/05/15 02:35:54;;;;;;;;;2.00;2.00;;;;;21.78;47.63;102099.03;5049769;28;8817;-70
2022/05/15 02:38:19;;;;;;;;;4.00;2.75;;;;;21.78;47.69;102105.22;5049541;28;8786;-70
2022/05/15 02:40:44;;;;;;;;;3.00;3.00;;;;;21.78;47.62;102102.56;5049749;28;8790;-71
2022/05/15 02:43:10;;;;;;;;;3.33;3.33;;;;;21.77;47.53;102106.09;5050148;28;8818;-70
2022/05/15 02:45:35;;;;;;;;;3.00;3.00;;;;;21.77;47.71;102108.75;5049292;28;8786;-70
2022/05/15 02:48:00;;;;;;;;;4.00;3.00;;;;;21.78;47.44;102117.63;5049755;28;8813;-71
2022/05/15 02:53:09;;;;;;;;;4.00;2.00;;;;;21.77;47.70;102102.56;5050143;28;8758;-70
2022/05/15 02:55:35;;;;;;;;;4.00;3.67;;;;;21.76;47.58;102103.44;5049595;28;9304;-70
2022/05/15 02:58:01;;;;;;;;;3.25;2.75;;;;;21.75;47.55;102102.56;5048640;28;9541;-70
2022/05/15 03:00:27;;;;;;;;;4.00;3.00;;;;;21.74;47.64;102098.16;5049893;28;8794;-70
2022/05/15 03:02:53;;;;;;;;;4.00;3.00;;;;;21.75;47.75;102093.69;5049189;28;8805;-71
2022/05/15 03:05:20;;;;;;;;;4.33;3.00;;;;;21.74;47.68;102094.59;5049167;28;9384;-70
2022/05/15 03:07:46;;;;;;;;;1.67;1.67;;;;;21.73;47.65;102091.06;5049405;28;9277;-71
2022/05/15 03:10:14;;;;;;;;;3.00;3.00;;;;;21.73;47.48;102095.50;5049485;28;9952;-71
2022/05/15 03:12:39;;;;;;;;;3.67;3.67;;;;;21.72;47.79;102091.03;5049011;28;8785;-70
2022/05/15 03:15:06;;;;;;;;;3.00;3.00;;;;;21.72;47.72;102088.38;5048862;28;10236;-70
2022/05/15 03:17:34;;;;;;;;;4.00;3.00;;;;;21.71;47.71;102081.34;5049313;28;8754;-71
2022/05/15 03:20:00;;;;;;;;;4.67;3.00;;;;;21.71;47.55;102095.47;5048458;28;10082;-70
2022/05/15 03:22:26;;;;;;;;;3.00;3.00;;;;;21.72;47.50;102091.03;5049293;28;9269;-70
2022/05/15 03:24:51;;;;;;;;;3.50;2.00;;;;;21.71;47.48;102084.00;5049192;28;9352;-71
2022/05/15 03:27:16;;;;;;;;;4.00;4.00;;;;;21.69;47.60;102079.56;5049077;28;8794;-70
2022/05/15 03:29:42;;;;;;;;;3.00;3.00;;;;;21.69;47.57;102079.56;5049477;28;9545;-71
2022/05/15 03:32:08;;;;;;;;;2.00;2.00;;;;;21.69;47.47;102082.22;5049322;28;9579;-71
2022/05/15 03:34:33;;;;;;;;;3.00;3.00;;;;;21.69;47.69;102076.00;5048668;28;8786;-70
2022/05/15 03:36:58;;;;;;;;;3.25;2.75;;;;;21.69;47.53;102076.91;5048802;28;8790;-70
2022/05/15 03:39:24;;;;;;;;;2.00;2.00;;;;;21.68;47.38;102072.47;5049247;28;8786;-70
2022/05/15 03:41:50;;;;;;;;;2.50;2.50;;;;;21.68;47.30;102068.91;5048356;28;8804;-70
2022/05/15 03:44:17;;;;;;;;;2.00;2.00;;;;;21.68;47.58;102063.59;5049425;28;8790;-70
2022/05/15 03:46:43;;;;;;;;;4.00;4.00;;;;;21.67;47.55;102060.06;5048664;28;9374;-70
2022/05/15 03:49:11;;;;;;;;;4.00;4.00;;;;;21.67;47.58;102065.38;5049490;28;9430;-70
2022/05/15 03:51:36;;;;;;;;;4.00;4.00;;;;;21.67;47.46;102056.50;5049206;28;10061;-70
2022/05/15 03:54:05;;;;;;;;;2.00;2.00;;;;;21.66;47.64;102068.94;5047926;28;9620;-71
2022/05/15 03:59:16;;;;;;;;;1.00;1.00;;;;;21.67;47.51;102067.13;5049218;28;9492;-70
2022/05/15 04:01:42;;;;;;;;;6.00;4.00;;;;;21.66;47.39;102068.06;5048226;28;9217;-70
2022/05/15 04:04:08;;;;;;;;;3.00;2.25;;;;;21.65;47.24;102067.16;5048711;28;9651;-70
2022/05/15 04:06:33;;;;;;;;;2.50;2.50;;;;;21.65;47.28;102061.84;5048868;28;8810;-71
2022/05/15 04:08:58;;;;;;;;;2.50;2.50;;;;;21.65;47.21;102063.63;5048370;28;9475;-70
2022/05/15 04:11:24;;;;;;;;;2.75;2.00;;;;;21.64;47.25;102064.50;5049006;28;8778;-70
2022/05/15 04:13:49;;;;;;;;;3.50;2.50;;;;;21.63;47.03;102070.72;5048827;28;8790;-71
2022/05/15 04:16:14;;;;;;;;;4.00;2.25;;;;;21.63;47.59;102068.06;5048635;28;8804;-71
2022/05/15 04:18:40;;;;;;;;;2.33;2.33;;;;;21.63;47.40;102068.94;5049344;28;8766;-70
2022/05/15 04:21:06;;;;;;;;;2.00;2.00;;;;;21.63;47.42;102071.59;5048912;28;8809;-70
2022/05/15 04:23:31;;;;;;;;;3.00;2.25;;;;;21.63;47.45;102076.03;5048621;28;9517;-70
2022/05/15 04:25:56;;;;;;;;;2.00;2.00;;;;;21.61;47.26;102070.72;5050078;28;8794;-71
2022/05/15 04:28:22;;;;;;;;;3.00;2.33;;;;;21.62;47.36;102066.28;5053202;28;8802;-70
2022/05/15 04:30:48;;;;;;;;;3.00;3.00;;;;;21.62;47.43;102075.16;5051893;28;8794;-71
2022/05/15 04:33:13;;;;;;;;;3.67;3.00;;;;;21.61;47.28;102073.38;5052857;28;8863;-71
2022/05/15 04:35:38;;;;;;;;;3.00;3.00;;;;;21.62;47.34;102076.94;5052727;28;8785;-70
2022/05/15 04:38:04;;;;;;;;;2.50;2.00;;;;;21.61;47.47;102075.16;5051538;28;8794;-70
2022/05/15 04:40:29;;;;;;;;;2.67;2.00;;;;;21.61;47.33;102081.34;5052348;28;8796;-70
2022/05/15 04:42:55;;;;;;;;;2.67;2.67;;;;;21.60;47.29;102082.25;5051116;28;8804;-70
2022/05/15 04:45:23;;;;;;;;;3.00;2.00;;;;;21.61;47.13;102081.34;5052095;28;8806;-70
2022/05/15 04:47:48;;;;;;;;;2.33;2.33;;;;;21.62;47.36;102079.59;5051811;28;8899;-70
2022/05/15 04:50:15;;;;;;;;;3.50;3.50;;;;;21.61;47.40;102080.47;5051200;28;9186;-70
2022/05/15 04:52:40;;;;;;;;;2.00;2.00;;;;;21.61;47.26;102086.66;5051816;28;8804;-70
2022/05/15 04:55:06;;;;;;;;;2.00;2.00;;;;;21.59;47.31;102079.59;5051311;28;9198;-70
2022/05/15 04:57:31;;;;;;;;;2.00;2.00;;;;;21.59;47.33;102079.59;5051445;28;8809;-71
2022/05/15 04:59:56;;;;;;;;;2.33;2.33;;;;;21.60;47.28;102076.03;5051240;28;8774;-70
2022/05/15 05:02:22;;;;;;;;;2.50;2.00;;;;;21.60;47.54;102076.03;5051405;28;8844;-70
2022/05/15 05:04:47;;;;;;;;;3.67;3.00;;;;;21.59;47.38;102069.88;5050460;28;9653;-70
2022/05/15 05:07:12;;;;;;;;;3.00;3.00;;;;;21.59;47.44;102074.28;5051545;28;8802;-70
2022/05/15 05:09:38;;;;;;;;;2.00;2.00;;;;;21.60;47.24;102070.72;5051558;28;8963;-70
2022/05/15 05:12:03;;;;;;;;;2.67;2.00;;;;;21.60;47.22;102076.03;5050493;28;9537;-70
2022/05/15 05:14:29;;;;;;;;;3.00;3.00;;;;;21.59;47.29;102076.94;5051481;28;8905;-70
2022/05/15 05:16:54;;;;;;;;;2.00;2.00;;;;;21.59;47.24;102066.31;5051313;28;9596;-70
2022/05/15 05:19:19;;;;;;;;;3.00;2.67;;;;;21.57;47.22;102061.00;5050725;28;9545;-70
2022/05/15 05:21:44;;;;;;;;;3.33;3.33;;;;;21.59;47.47;102080.50;5051186;28;8770;-70
2022/05/15 05:24:11;;;;;;;;;2.25;2.25;;;;;21.58;47.35;102068.09;5050996;28;8848;-70
2022/05/15 05:26:36;;;;;;;;;4.00;3.00;;;;;21.58;47.45;102073.41;5050346;28;9445;-70
2022/05/15 05:29:02;;;;;;;;;3.00;3.00;;;;;21.59;47.12;102076.94;5050933;28;8817;-70
2022/05/15 05:31:27;;;;;;;;;2.33;2.33;;;;;21.58;47.31;102078.72;5051303;28;8801;-70
2022/05/15 05:33:52;;;;;;;;;3.00;3.00;;;;;21.58;47.31;102070.75;5050832;28;8794;-70
2022/05/15 05:36:17;;;;;;;;;2.00;2.00;;;;;21.58;47.13;102069.84;5052243;28;8800;-70
2022/05/15 05:38:45;;;;;;;;;4.00;3.00;;;;;21.57;47.15;102068.97;5052155;28;8800;-70
2022/05/15 05:41:10;;;;;;;;;4.00;1.75;;;;;21.57;47.21;102063.66;5051397;28;8802;-70
2022/05/15 05:43:35;;;;;;;;;2.00;2.00;;;;;21.58;47.34;102068.09;5051901;28;9489;-70
2022/05/15 05:46:00;;;;;;;;;2.00;2.00;;;;;21.57;47.33;102068.97;5051556;28;8804;-70
2022/05/15 05:48:26;;;;;;;;;2.00;1.75;;;;;21.59;47.28;102075.19;5051038;28;8832;-70
2022/05/15 05:50:51;;;;;;;;;2.25;2.25;;;;;21.58;47.16;102073.41;5050868;28;8822;-70
2022/05/15 05:53:16;;;;;;;;;3.00;2.00;;;;;21.59;47.11;102071.63;5050179;28;9591;-70
2022/05/15 05:55:41;;;;;;;;;2.50;2.50;;;;;21.60;47.09;102070.72;5051041;28;8805;-70
2022/05/15 05:58:07;;;;;;;;;5.67;3.67;;;;;21.58;47.23;102073.41;5050472;28;9582;-70
2022/05/15 06:00:34;;;;;;;;;2.67;2.67;;;;;21.59;47.34;102076.94;5049828;28;8809;-70
2022/05/15 06:05:46;;;;;;;;;1.75;1.00;;;;;21.60;47.21;102079.56;5050362;28;9321;-70
2022/05/15 06:08:12;;;;;;;;;3.00;2.75;;;;;21.61;47.27;102085.78;5049562;28;10495;-69
2022/05/15 06:10:41;;;;;;;;;3.00;3.00;;;;;21.60;47.23;102087.56;5050674;28;9461;-70
2022/05/15 06:13:06;;;;;;;;;2.00;2.00;;;;;21.59;47.25;102083.16;5050033;28;10631;-70
2022/05/15 06:15:32;;;;;;;;;2.33;2.00;;;;;21.62;46.93;102087.56;5049876;28;9398;-70
2022/05/15 06:17:59;;;;;;;;;3.50;2.50;;;;;21.61;47.13;102088.44;5050107;28;8810;-70
2022/05/15 06:20:25;;;;;;;;;3.00;2.00;;;;;21.62;47.14;102085.78;5050482;28;8805;-70
2022/05/15 06:22:51;;;;;;;;;2.00;2.00;;;;;21.62;47.28;102088.44;5048988;28;9429;-70
2022/05/15 06:25:16;;;;;;;;;3.33;3.33;;;;;21.63;47.32;102081.38;5050299;28;9519;-70
2022/05/15 06:27:42;;;;;;;;;2.67;2.67;;;;;21.62;47.14;102087.56;5050090;28;8849;-70
2022/05/15 06:30:08;;;;;;;;;2.50;2.50;;;;;21.62;47.25;102091.09;5049121;28;8816;-70
2022/05/15 06:32:34;;;;;;;;;4.00;2.00;;;;;21.61;47.10;102092.00;5049995;28;8809;-70
2022/05/15 06:34:59;;;;;;;;;3.00;3.00;;;;;21.63;47.00;102084.03;5049992;28;9261;-70
2022/05/15 06:37:24;;;;;;;;;2.00;2.00;;;;;21.61;46.92;102084.00;5049362;28;8824;-70
2022/05/15 06:39:49;;;;;;;;;4.00;2.33;;;;;21.64;47.14;102083.09;5049718;28;8786;-70
2022/05/15 06:42:15;;;;;;;;;3.00;2.00;;;;;21.64;46.95;102088.41;5050012;28;9648;-70
2022/05/15 06:44:41;;;;;;;;;4.67;3.00;;;;;21.66;46.94;102086.66;5049426;28;8903;-70
2022/05/15 06:47:06;;;;;;;;;3.33;3.33;;;;;21.65;47.14;102085.78;5049783;28;8794;-70
2022/05/15 06:49:31;;;;;;;;;2.50;2.50;;;;;21.66;47.15;102089.31;5048879;28;8813;-70
2022/05/15 06:51:57;;;;;;;;;5.00;3.00;;;;;21.66;47.03;102090.22;5048951;28;8798;-70
2022/05/15 06:54:22;;;;;;;;;2.67;2.33;;;;;21.67;46.97;102085.75;5049551;28;8794;-70
2022/05/15 06:59:32;;;;;;;;;4.00;3.00;;;;;21.68;46.97;102088.41;5049441;28;8774;-69
2022/05/15 07:01:58;;;;;;;;;4.00;2.00;;;;;21.69;47.09;102091.97;5048692;28;9331;-70
2022/05/15 07:04:23;;;;;;;;;4.00;1.00;;;;;21.69;47.11;102089.28;5048810;28;9621;-69
2022/05/15 07:06:48;;;;;;;;;3.75;2.50;;;;;21.71;47.10;102087.50;5049028;28;8809;-69
2022/05/15 07:09:14;;;;;;;;;2.50;2.00;;;;;21.70;47.05;102080.44;5049513;28;8793;-69
2022/05/15 07:11:40;;;;;;;;;2.50;2.50;;;;;21.70;46.94;102083.09;5048524;28;8863;-70
2022/05/15 07:14:05;;;;;;;;;2.00;2.00;;;;;21.70;47.01;102072.47;5049139;28;8863;-70
2022/05/15 07:16:33;;;;;;;;;1.00;1.00;;;;;21.71;47.18;102079.53;5049497;28;9387;-70
2022/05/15 07:18:58;;;;;;;;;1.00;1.00;;;;;21.73;46.82;102082.19;5048309;28;8782;-71
2022/05/15 07:21:24;;;;;;;;;1.50;0.00;;;;;21.73;46.93;102083.09;5049452;28;9395;-71
2022/05/15 07:23:49;;;;;;;;;3.25;2.00;;;;;21.74;47.11;102087.50;5048879;28;8822;-70
2022/05/15 07:26:14;;;;;;;;;2.75;2.75;;;;;21.74;47.02;102081.31;5048453;28;8806;-70
2022/05/15 07:28:40;;;;;;;;;3.25;2.75;;;;;21.75;47.00;102083.94;5049022;28;8794;-70
2022/05/15 07:31:05;;;;;;;;;2.00;1.75;;;;;21.76;47.08;102093.69;5048885;28;8800;-70
2022/05/15 07:33:30;;;;;;;;;4.25;3.00;;;;;21.76;47.21;102085.72;5048278;28;8932;-70
2022/05/15 07:35:55;;;;;;;;;3.00;2.25;;;;;21.77;47.24;102086.59;5048719;28;8814;-70
2022/05/15 07:38:21;;;;;;;;;5.00;3.00;;;;;21.79;46.84;102090.13;5049079;28;8830;-70
2022/05/15 07:40:47;;;;;;;;;2.00;2.00;;;;;21.78;46.97;102086.63;5048060;28;8879;-71
2022/05/15 07:43:13;;;;;;;;;3.00;3.00;;;;;21.82;47.33;102091.00;5048791;28;8821;-70
2022/05/15 07:45:39;;;;;;;;;2.67;2.67;;;;;21.84;47.55;102093.66;5048004;28;8919;-71
2022/05/15 07:48:04;;;;;;;;;2.00;2.00;;;;;21.83;47.21;102083.91;5047827;28;8817;-70
2022/05/15 07:50:33;;;;;;;;;2.67;1.67;;;;;21.83;47.20;102081.25;5048238;28;8940;-70
2022/05/15 07:52:59;;;;;;;;;3.00;3.00;;;;;21.84;46.95;102075.94;5048184;28;8773;-70
2022/05/15 07:55:24;;;;;;;;;3.00;3.00;;;;;21.85;47.06;102071.50;5048946;28;9148;-70
2022/05/15 07:57:50;;;;;;;;;2.50;2.00;;;;;21.86;47.13;102070.63;5048198;28;8833;-70
2022/05/15 08:00:16;;;;;;;;;3.00;3.00;;;;;21.87;47.40;102077.69;5046673;28;8813;-71
2022/05/15 08:02:42;;;;;;;;;2.00;2.00;;;;;21.87;47.21;102067.03;5052378;28;8806;-70
2022/05/15 08:08:05;;;;;;;;;3.67;3.00;;;;;21.90;47.20;102075.00;5051196;28;9344;-71
2022/05/15 08:10:34;;;;;;;;;3.00;3.00;;;;;21.89;47.21;102074.16;5051160;28;9281;-70
2022/05/15 08:13:00;;;;;;;;;2.00;2.00;;;;;21.89;47.31;102068.84;5051846;28;9329;-71
2022/05/15 08:15:27;;;;;;;;;3.00;3.00;;;;;21.90;47.17;102072.34;5051931;28;9329;-71
2022/05/15 08:17:52;;;;;;;;;3.75;2.00;;;;;21.92;47.16;102062.63;5051729;28;11578;-71
2022/05/15 08:25:46;;;;;;;;;3.00;3.00;;;;;22.02;47.19;102051.03;5051559;28;9317;-71
2022/05/15 08:28:12;;;;;;;;;4.00;3.00;;;;;22.04;46.98;102051.94;5051559;28;10149;-70
2022/05/15 08:30:38;;;;;;;;;3.75;3.75;;;;;22.07;47.23;102046.59;5050653;28;8817;-70
2022/05/15 08:33:06;;;;;;;;;4.75;3.00;;;;;22.10;46.78;102043.91;5052008;28;8844;-71
2022/05/15 08:35:31;;;;;;;;;3.00;3.00;;;;;22.11;46.98;102035.91;5051657;28;8782;-70
2022/05/15 08:37:57;;;;;;;;;3.50;3.00;;;;;22.12;47.19;102035.00;5052014;28;9442;-72
2022/05/15 08:40:28;;;;;;;;;3.00;2.33;;;;;22.16;46.89;102035.84;5050739;28;8813;-70
2022/05/15 08:42:56;;;;;;;;;3.25;3.25;;;;;22.19;46.96;102033.22;5050945;28;8855;-70
2022/05/15 08:45:25;;;;;;;;;3.00;3.00;;;;;22.21;46.76;102030.50;5051844;28;9401;-70
2022/05/15 08:48:02;;;;;;;;;4.00;3.00;;;;;22.22;46.88;102029.63;5050975;28;9626;-71
2022/05/15 08:50:33;;;;;;;;;3.50;3.00;;;;;22.24;46.76;102025.16;5050031;28;9442;-70
2022/05/15 08:53:07;;;;;;;;;2.25;2.25;;;;;22.26;46.66;102018.97;5051732;28;9355;-70
2022/05/15 08:55:44;;;;;;;;;2.75;2.75;;;;;22.27;46.82;102019.84;5052214;28;9441;-70
2022/05/15 08:58:23;;;;;;;;;1.33;1.33;;;;;22.31;46.81;102024.25;5050899;28;9430;-70
2022/05/15 09:00:51;;;;;;;;;2.00;2.00;;;;;22.31;47.00;102021.59;5050387;28;9314;-70
2022/05/15 09:03:28;;;;;;;;;5.00;4.00;;;;;22.32;47.04;102020.66;5051303;28;9255;-70
2022/05/15 09:06:23;;;;;;;;;3.75;3.75;;;;;22.32;47.08;102024.22;5051172;28;9344;-70
2022/05/15 09:09:23;;;;;;;;;2.75;2.75;;;;;22.33;46.91;102026.00;5017201;28;9489;-70
2022/05/15 09:11:55;;;;;;;;;4.00;3.00;;;;;22.36;46.73;102022.41;5050184;28;9496;-70
2022/05/15 09:15:00;;;;;;;;;2.00;2.00;;;;;22.37;46.86;102022.41;5051628;28;9507;-69
2022/05/15 09:17:47;;;;;;;;;3.67;3.00;;;;;22.38;47.09;102025.97;5020292;28;9526;-70
2022/05/15 09:20:15;;;;;;;;;3.75;3.75;;;;;22.39;46.85;102017.94;5049839;28;10185;-69
2022/05/15 09:22:49;;;;;;;;;2.50;2.50;;;;;22.42;46.90;102014.41;5051506;28;9522;-70
2022/05/15 09:25:22;;;;;;;;;3.00;3.00;;;;;22.42;46.94;102012.59;5050835;28;9375;-69
2022/05/15 09:27:58;;;;;;;;;3.25;3.25;;;;;22.43;47.08;102010.81;5050814;28;9547;-69
2022/05/15 09:30:26;;;;;;;;;3.00;2.25;;;;;22.44;47.08;102009.94;5049858;28;9472;-69
2022/05/15 09:32:56;;;;;;;;;3.75;3.00;;;;;22.46;46.83;102011.66;5050583;28;9569;-70
2022/05/15 09:35:38;;;;;;;;;2.00;2.00;;;;;22.47;47.15;102005.47;5051102;28;9502;-69
2022/05/15 09:43:40;;;;;;;;;3.00;2.00;;;;;22.52;47.26;102006.31;5051234;28;9354;-69
2022/05/15 09:46:10;;;;;;;;;2.67;2.67;;;;;22.52;47.52;102010.75;5049701;28;9398;-70
2022/05/15 09:48:48;;;;;;;;;3.00;3.00;;;;;22.55;47.18;102003.63;5051210;28;9445;-69
2022/05/15 09:51:25;;;;;;;;;3.25;3.25;;;;;22.55;47.36;102002.72;5049643;28;9273;-69
2022/05/15 09:53:53;;;;;;;;;3.25;2.25;;;;;22.55;47.16;102008.94;5049729;28;9496;-69
2022/05/15 09:56:18;;;;;;;;;3.00;3.00;;;;;22.57;47.69;102004.47;5050176;28;9436;-69
2022/05/15 09:58:55;;;;;;;;;5.00;3.25;;;;;22.69;55.35;102002.63;5050395;28;9355;-68
2022/05/15 10:01:56;;;;;;;;;3.75;3.00;;;;;22.77;54.11;101999.00;5049627;28;8924;-69
2022/05/15 10:04:28;;;;;;;;;5.00;5.00;;;;;22.92;58.02;101997.94;5050280;28;9545;-70
2022/05/15 10:06:59;;;;;;;;;4.00;4.00;;;;;22.96;56.69;101992.56;5047173;28;9564;-69
2022/05/15 10:09:36;;;;;;;;;8.00;5.00;;;;;23.05;61.24;101991.59;5050310;28;9476;-68
2022/05/15 10:12:11;;;;;;;;;7.25;6.00;;;;;23.08;59.42;101988.91;5048803;28;9553;-68
2022/05/15 10:14:56;;;;;;;;;5.00;4.00;;;;;23.13;59.81;101995.06;5049335;28;9664;-68
2022/05/15 10:17:23;;;;;;;;;7.00;6.00;;;;;23.11;58.49;101997.72;5049999;28;9408;-68
2022/05/15 10:19:55;;;;;;;;;7.50;6.25;;;;;23.20;59.83;101993.19;5049845;28;9561;-68
2022/05/15 10:22:30;;;;;;;;;8.50;5.00;;;;;23.25;58.42;101994.00;5049309;28;9448;-69
2022/05/15 10:25:05;;;;;;;;;12.75;8.25;;;;;23.21;54.41;101987.81;5047928;28;9718;-70
2022/05/15 10:27:36;;;;;;;;;8.00;8.00;;;;;23.23;53.23;101971.84;5047856;28;9810;-70
2022/05/15 10:30:25;;;;;;;;;10.50;9.75;;;;;23.25;52.22;101968.25;5049572;28;9656;-71
2022/05/15 10:33:01;;;;;;;;;9.00;9.00;;;;;23.16;50.61;101962.16;5049419;28;9670;-71
2022/05/15 10:35:47;;;;;;;;;8.25;7.00;;;;;23.14;51.01;101978.16;5049319;28;10536;-70
2022/05/15 10:38:30;;;;;;;;;11.25;9.75;;;;;23.21;49.28;101974.50;5049045;28;9848;-71
2022/05/15 10:41:09;;;;;;;;;11.25;9.75;;;;;23.21;48.87;101973.66;5047802;28;10563;-70
2022/05/15 10:43:58;;;;;;;;;10.50;8.75;;;;;23.21;48.74;101971.84;5049003;28;9807;-70
2022/05/15 10:46:55;;;;;;;;;10.25;9.25;;;;;23.23;47.70;101966.50;5049162;28;9692;-70
2022/05/15 10:49:34;;;;;;;;;9.75;9.25;;;;;23.23;46.80;101964.72;5049084;28;9969;-71
2022/05/15 10:52:32;;;;;;;;;14.75;9.00;;;;;23.39;47.65;101958.31;5047878;28;9732;-70
2022/05/15 10:58:36;;;;;;;;;10.75;10.00;;;;;23.32;44.93;101958.41;5048233;28;9662;-70
2022/05/15 11:01:12;;;;;;;;;9.75;8.25;;;;;23.29;45.75;101963.75;5047199;28;10034;-71
2022/05/15 11:04:02;;;;;;;;;11.25;8.00;;;;;23.35;44.95;101956.59;5048953;28;9805;-71
2022/05/15 11:06:45;;;;;;;;;10.50;8.00;;;;;23.41;43.53;101952.94;5049222;28;10447;-71
2022/05/15 11:09:35;;;;;;;;;9.25;9.00;;;;;23.45;43.52;101954.69;5048857;28;9727;-70
2022/05/15 11:12:08;;;;;;;;;9.75;8.75;;;;;23.42;42.71;101950.28;5045954;28;9761;-70
2022/05/15 11:14:58;;;;;;;;;11.75;8.00;;;;;23.55;43.35;101946.53;5049299;28;9658;-70
2022/05/15 11:17:49;;;;;;;;;9.00;7.50;;;;;23.56;43.44;101937.66;5048164;28;9675;-71
2022/05/15 11:20:24;;;;;;;;;8.75;7.75;;;;;23.51;40.53;101944.81;5049346;28;9652;-70
2022/05/15 11:22:57;;;;;;;;;9.00;8.50;;;;;23.47;42.40;101939.56;5047498;28;10004;-70
2022/05/15 11:25:28;;;;;;;;;8.75;8.25;;;;;23.49;42.76;101938.63;5047611;28;9744;-70
2022/05/15 11:28:05;;;;;;;;;9.75;9.75;;;;;23.42;42.58;101928.09;5048221;28;10595;-70
2022/05/15 11:30:38;;;;;;;;;8.25;8.25;;;;;23.39;39.37;101928.97;5050004;28;9715;-73
2022/05/15 11:33:11;;;;;;;;;7.50;7.50;;;;;23.48;40.83;101928.88;5048198;28;10672;-70
2022/05/15 11:35:41;;;;;;;;;9.00;9.00;;;;;23.44;40.06;101912.94;5051519;28;9682;-69
2022/05/15 11:38:28;;;;;;;;;6.50;6.50;;;;;23.49;40.26;101911.09;5050507;28;9722;-70
2022/05/15 11:40:54;;;;;;;;;8.75;8.75;;;;;23.56;40.86;101908.31;5053712;28;9778;-69
2022/05/15 11:43:28;;;;;;;;;8.50;7.00;;;;;23.56;41.49;101899.44;5054236;28;9809;-70
2022/05/15 11:46:01;;;;;;;;;7.00;7.00;;;;;23.54;40.13;101901.25;5052932;28;9633;-70
2022/05/15 11:48:50;;;;;;;;;8.50;7.25;;;;;23.59;41.23;101897.59;5051761;28;9728;-70
2022/05/15 11:51:16;;;;;;;;;6.50;5.50;;;;;23.52;39.49;101892.38;5053378;28;9707;-70
2022/05/15 11:54:03;;;;;;;;;7.25;7.25;;;;;23.56;39.33;101899.44;5053000;28;9721;-70
2022/05/15 11:56:31;;;;;;;;;7.25;7.25;;;;;23.58;39.68;101894.97;5053479;28;8798;-70
2022/05/15 11:59:21;;;;;;;;;5.25;5.00;;;;;23.62;39.26;101894.00;5050836;28;9907;-70
2022/05/15 12:01:50;;;;;;;;;5.75;5.00;;;;;23.65;40.15;101883.31;5053316;28;9745;-70
2022/05/15 12:04:15;;;;;;;;;6.00;6.00;;;;;23.65;39.79;101885.97;5053486;28;9749;-70
2022/05/15 12:06:46;;;;;;;;;5.50;5.50;;;;;23.69;39.55;101877.03;5051861;28;9828;-70
2022/05/15 12:09:17;;;;;;;;;7.25;7.25;;;;;23.73;39.84;101881.41;5051579;28;8813;-71